createdAt,value
2024-02-01T00:00:00.812Z,13.10
2024-02-01T00:02:27.703Z,13.10
2024-02-01T00:04:54.579Z,13.10
2024-02-01T00:07:21.442Z,13.10
2024-02-01T00:09:49.673Z,13.10
2024-02-01T00:12:16.620Z,13.10
2024-02-01T00:14:44.627Z,13.10
2024-02-01T00:17:11.624Z,13.10
2024-02-01T00:19:38.575Z,13.10
2024-02-01T00:22:09.071Z,13.10
2024-02-01T00:24:39.691Z,13.10
2024-02-01T00:27:06.701Z,13.10
2024-02-01T00:29:33.574Z,13.10
2024-02-01T00:32:00.536Z,13.10
2024-02-01T00:34:27.784Z,13.10
2024-02-01T00:36:54.802Z,13.10
2024-02-01T00:39:21.691Z,13.10
2024-02-01T00:41:48.670Z,13.10
2024-02-01T00:44:15.589Z,13.10
2024-02-01T00:46:42.430Z,13.10
2024-02-01T00:49:09.867Z,13.10
2024-02-01T00:51:36.774Z,13.10
2024-02-01T00:54:03.802Z,13.10
2024-02-01T00:56:30.970Z,13.20
2024-02-01T00:58:57.845Z,13.20
2024-02-01T01:01:25.212Z,13.10
2024-02-01T01:03:52.159Z,13.10
2024-02-01T01:06:19.339Z,13.20
2024-02-01T01:08:46.275Z,13.20
2024-02-01T01:11:13.190Z,13.20
2024-02-01T01:13:40.139Z,13.20
2024-02-01T01:16:07.528Z,13.20
2024-02-01T01:18:34.556Z,13.20
2024-02-01T01:21:01.623Z,13.20
2024-02-01T01:23:28.580Z,13.20
2024-02-01T01:25:55.817Z,13.20
2024-02-01T01:28:22.694Z,13.20
2024-02-01T01:30:50.898Z,13.20
2024-02-01T01:33:17.822Z,13.20
2024-02-01T01:35:44.936Z,13.20
2024-02-01T01:38:12.477Z,13.20
2024-02-01T01:40:39.387Z,13.20
2024-02-01T01:43:06.270Z,13.20
2024-02-01T01:45:33.392Z,13.20
2024-02-01T01:48:00.318Z,13.20
2024-02-01T01:50:27.537Z,13.20
2024-02-01T01:52:55.884Z,13.20
2024-02-01T01:55:23.242Z,13.20
2024-02-01T01:57:50.848Z,13.20
2024-02-01T02:00:18.566Z,13.20
2024-02-01T02:02:45.963Z,13.20
2024-02-01T02:05:12.931Z,13.20
2024-02-01T02:07:40.782Z,13.20
2024-02-01T02:10:16.026Z,13.20
2024-02-01T02:12:46.103Z,13.20
2024-02-01T02:15:14.870Z,13.20
2024-02-01T02:17:42.096Z,13.20
2024-02-01T02:20:19.923Z,13.20
2024-02-01T02:22:53.287Z,13.20
2024-02-01T02:25:20.863Z,13.20
2024-02-01T02:27:47.903Z,13.20
2024-02-01T02:30:15.253Z,13.20
2024-02-01T02:32:42.928Z,13.20
2024-02-01T02:35:17.616Z,13.20
2024-02-01T02:37:53.560Z,13.20
2024-02-01T02:40:22.233Z,13.20
2024-02-01T02:42:49.496Z,13.20
2024-02-01T02:45:17.003Z,13.20
2024-02-01T02:47:46.381Z,13.20
2024-02-01T02:50:13.889Z,13.20
2024-02-01T02:52:44.017Z,13.20
2024-02-01T02:55:11.216Z,13.20
2024-02-01T02:57:38.888Z,13.20
2024-02-01T03:00:07.450Z,13.20
2024-02-01T03:02:35.141Z,13.20
2024-02-01T03:05:03.000Z,13.30
2024-02-01T03:07:30.381Z,13.20
2024-02-01T03:09:57.526Z,13.20
2024-02-01T03:12:24.389Z,13.30
2024-02-01T03:14:52.308Z,13.30
2024-02-01T03:17:20.124Z,13.20
2024-02-01T03:19:52.397Z,13.20
2024-02-01T03:22:26.485Z,13.20
2024-02-01T03:25:00.452Z,13.20
2024-02-01T03:27:28.065Z,13.30
2024-02-01T03:29:54.970Z,13.20
2024-02-01T03:32:22.072Z,13.20
2024-02-01T03:34:49.019Z,13.20
2024-02-01T03:37:17.068Z,13.20
2024-02-01T03:39:44.032Z,13.20
2024-02-01T03:42:11.146Z,13.20
2024-02-01T03:44:38.843Z,13.20
2024-02-01T03:47:10.700Z,13.20
2024-02-01T03:49:41.924Z,13.20
2024-02-01T03:52:09.459Z,13.20
2024-02-01T03:54:40.068Z,13.20
2024-02-01T03:57:08.166Z,13.20
2024-02-01T03:59:35.500Z,13.20
2024-02-01T04:02:06.284Z,13.10
2024-02-01T04:04:34.216Z,13.20
2024-02-01T04:07:01.657Z,13.10
2024-02-01T04:09:28.659Z,13.10
2024-02-01T04:11:56.047Z,13.10
2024-02-01T04:14:23.085Z,13.10
2024-02-01T04:16:50.172Z,13.10
2024-02-01T04:19:17.446Z,13.00
2024-02-01T04:21:49.633Z,13.10
2024-02-01T04:24:18.336Z,13.00
2024-02-01T04:26:46.883Z,13.00
2024-02-01T04:29:14.433Z,13.00
2024-02-01T04:31:42.360Z,13.00
2024-02-01T04:34:10.497Z,13.00
2024-02-01T04:36:37.455Z,13.00
2024-02-01T04:39:09.217Z,13.00
2024-02-01T04:41:39.800Z,12.90
2024-02-01T04:44:09.162Z,12.90
2024-02-01T04:46:36.069Z,12.90
2024-02-01T04:49:13.226Z,12.90
2024-02-01T04:51:43.811Z,12.80
2024-02-01T04:54:11.406Z,12.80
2024-02-01T04:56:41.429Z,12.80
2024-02-01T04:59:08.500Z,12.70
2024-02-01T05:01:35.706Z,12.70
2024-02-01T05:04:03.208Z,12.70
2024-02-01T05:06:30.510Z,12.70
2024-02-01T05:08:57.572Z,12.60
2024-02-01T05:11:24.488Z,12.60
2024-02-01T05:13:51.594Z,12.60
2024-02-01T05:16:18.514Z,12.60
2024-02-01T05:18:45.568Z,12.60
2024-02-01T05:21:13.240Z,12.60
2024-02-01T05:23:40.289Z,12.60
2024-02-01T05:26:12.174Z,12.50
2024-02-01T05:28:39.228Z,12.50
2024-02-01T05:31:06.156Z,12.50
2024-02-01T05:33:33.205Z,12.50
2024-02-01T05:36:00.303Z,12.50
2024-02-01T05:38:27.678Z,12.50
2024-02-01T05:40:54.671Z,12.50
2024-02-01T05:43:21.631Z,12.50
2024-02-01T05:45:48.931Z,12.40
2024-02-01T05:48:16.029Z,12.40
2024-02-01T05:50:42.996Z,12.40
2024-02-01T05:53:10.977Z,12.40
2024-02-01T05:55:38.992Z,12.40
2024-02-01T05:58:09.043Z,12.40
2024-02-01T06:00:39.430Z,12.40
2024-02-01T06:03:10.344Z,12.40
2024-02-01T06:05:38.916Z,12.40
2024-02-01T06:08:06.299Z,12.40
2024-02-01T06:10:33.279Z,12.40
2024-02-01T06:13:00.916Z,12.40
2024-02-01T06:15:28.006Z,12.40
2024-02-01T06:17:55.308Z,12.40
2024-02-01T06:20:24.781Z,12.30
2024-02-01T06:22:51.795Z,12.30
2024-02-01T06:25:19.056Z,12.30
2024-02-01T06:27:47.963Z,12.30
2024-02-01T06:30:15.324Z,12.30
2024-02-01T06:32:43.230Z,12.30
2024-02-01T06:35:22.085Z,12.30
2024-02-01T06:38:17.109Z,12.30
2024-02-01T06:40:57.935Z,12.30
2024-02-01T06:43:53.731Z,12.30
2024-02-01T06:46:34.467Z,12.30
2024-02-01T06:49:19.788Z,12.30
2024-02-01T06:51:48.152Z,12.30
2024-02-01T06:54:30.229Z,12.30
2024-02-01T06:57:04.561Z,12.30
2024-02-01T06:59:55.902Z,12.30
2024-02-01T07:02:49.271Z,12.30
2024-02-01T07:05:48.615Z,12.30
2024-02-01T07:08:27.495Z,12.30
2024-02-01T07:11:02.538Z,12.30
2024-02-01T07:13:47.946Z,12.30
2024-02-01T07:16:22.924Z,12.30
2024-02-01T07:19:10.248Z,12.30
2024-02-01T07:22:01.600Z,12.30
2024-02-01T07:24:47.995Z,12.30
2024-02-01T07:27:34.957Z,12.30
2024-02-01T07:30:22.163Z,12.40
2024-02-01T07:33:20.090Z,12.40
2024-02-01T07:36:05.678Z,12.40
2024-02-01T07:38:51.172Z,12.40
2024-02-01T07:41:36.856Z,12.40
2024-02-01T07:44:22.510Z,12.40
2024-02-01T07:47:08.213Z,12.40
2024-02-01T07:49:56.917Z,12.40
2024-02-01T07:52:42.446Z,12.40
2024-02-01T07:55:28.414Z,12.40
2024-02-01T07:58:09.161Z,12.40
2024-02-01T08:00:37.025Z,12.40
2024-02-01T08:03:06.302Z,12.40
2024-02-01T08:05:52.422Z,12.40
2024-02-01T08:08:19.913Z,12.40
2024-02-01T08:10:47.273Z,12.50
2024-02-01T08:13:17.137Z,12.50
2024-02-01T08:15:45.537Z,12.50
2024-02-01T08:18:14.314Z,12.50
2024-02-01T08:20:42.129Z,12.50
2024-02-01T08:23:13.351Z,12.50
2024-02-01T08:25:43.542Z,12.50
2024-02-01T08:28:10.846Z,12.50
2024-02-01T08:30:37.874Z,12.50
2024-02-01T08:33:08.081Z,12.60
2024-02-01T08:35:35.845Z,12.60
2024-02-01T08:38:06.744Z,12.60
2024-02-01T08:40:34.454Z,12.60
2024-02-01T08:43:01.678Z,12.60
2024-02-01T08:45:31.114Z,12.60
2024-02-01T08:48:04.617Z,12.60
2024-02-01T08:50:34.503Z,12.70
2024-02-01T08:53:02.418Z,12.60
2024-02-01T08:55:29.820Z,12.70
2024-02-01T08:57:57.198Z,12.60
2024-02-01T09:00:27.854Z,12.60
2024-02-01T09:03:05.902Z,12.70
2024-02-01T09:05:41.500Z,12.70
2024-02-01T09:08:10.442Z,12.70
2024-02-01T09:10:38.608Z,12.70
2024-02-01T09:13:06.010Z,12.70
2024-02-01T09:15:34.404Z,12.70
2024-02-01T09:18:01.550Z,12.80
2024-02-01T09:20:29.403Z,12.70
2024-02-01T09:22:58.255Z,12.80
2024-02-01T09:25:26.594Z,12.80
2024-02-01T09:27:55.525Z,12.80
2024-02-01T09:30:25.091Z,12.90
2024-02-01T09:32:55.036Z,12.80
2024-02-01T09:35:23.782Z,12.90
2024-02-01T09:37:54.593Z,12.90
2024-02-01T09:40:22.638Z,12.90
2024-02-01T09:42:51.427Z,13.00
2024-02-01T09:45:20.882Z,13.00
2024-02-01T09:47:49.641Z,13.00
2024-02-01T09:50:22.344Z,13.00
2024-02-01T09:52:51.976Z,13.00
2024-02-01T09:55:21.116Z,13.00
2024-02-01T09:57:50.017Z,13.00
2024-02-01T10:00:24.130Z,13.10
2024-02-01T10:02:55.293Z,13.10
2024-02-01T10:05:24.201Z,13.10
2024-02-01T10:07:54.495Z,13.10
2024-02-01T10:10:22.197Z,13.10
2024-02-01T10:12:49.311Z,13.20
2024-02-01T10:15:21.387Z,13.10
2024-02-01T10:17:53.472Z,13.10
2024-02-01T10:20:35.235Z,13.20
2024-02-01T10:23:06.650Z,13.20
2024-02-01T10:25:35.138Z,13.20
2024-02-01T10:28:05.791Z,13.20
2024-02-01T10:30:33.430Z,13.30
2024-02-01T10:33:05.173Z,13.30
2024-02-01T10:35:35.456Z,13.40
2024-02-01T10:38:22.288Z,13.30
2024-02-01T10:40:52.279Z,13.40
2024-02-01T10:43:43.469Z,13.50
2024-02-01T10:46:11.918Z,13.40
2024-02-01T10:49:22.888Z,13.50
2024-02-01T10:51:52.270Z,13.50
2024-02-01T10:54:20.220Z,13.60
2024-02-01T10:56:47.984Z,13.60
2024-02-01T10:59:18.644Z,13.60
2024-02-01T11:01:47.112Z,13.70
2024-02-01T11:04:15.941Z,13.70
2024-02-01T11:06:49.663Z,13.70
2024-02-01T11:09:26.960Z,13.70
2024-02-01T11:11:56.633Z,13.80
2024-02-01T11:14:33.551Z,13.80
2024-02-01T11:17:04.283Z,13.80
2024-02-01T11:19:39.257Z,13.80
2024-02-01T11:22:13.584Z,13.90
2024-02-01T11:24:44.439Z,13.90
2024-02-01T11:27:14.643Z,13.90
2024-02-01T11:29:48.305Z,14.00
2024-02-01T11:32:20.269Z,14.00
2024-02-01T11:34:51.758Z,14.10
2024-02-01T11:37:25.100Z,14.20
2024-02-01T11:39:55.094Z,14.20
2024-02-01T11:42:31.370Z,14.30
2024-02-01T11:45:03.197Z,14.30
2024-02-01T11:47:35.081Z,14.30
2024-02-01T11:50:03.672Z,14.30
2024-02-01T11:52:38.536Z,14.40
2024-02-01T11:55:09.414Z,14.40
2024-02-01T11:57:48.592Z,14.30
2024-02-01T12:00:32.630Z,14.40
2024-02-01T12:03:10.655Z,14.40
2024-02-01T12:05:38.215Z,14.40
2024-02-01T12:08:07.737Z,14.40
2024-02-01T12:10:38.730Z,14.40
2024-02-01T12:13:06.671Z,14.40
2024-02-01T12:15:38.179Z,14.40
2024-02-01T12:18:10.434Z,14.50
2024-02-01T12:20:38.434Z,14.50
2024-02-01T12:23:06.043Z,14.50
2024-02-01T12:25:34.509Z,14.50
2024-02-01T12:28:02.484Z,14.60
2024-02-01T12:30:30.716Z,14.60
2024-02-01T12:32:57.937Z,14.60
2024-02-01T12:35:27.103Z,14.60
2024-02-01T12:37:56.382Z,14.60
2024-02-01T12:40:23.734Z,14.60
2024-02-01T12:42:54.373Z,14.60
2024-02-01T12:45:22.662Z,14.60
2024-02-01T12:47:52.285Z,14.60
2024-02-01T12:50:21.659Z,14.70
2024-02-01T12:52:50.065Z,14.70
2024-02-01T12:55:18.563Z,14.70
2024-02-01T12:57:50.813Z,14.70
2024-02-01T13:00:18.522Z,14.70
2024-02-01T13:02:46.517Z,14.70
2024-02-01T13:05:14.189Z,14.60
2024-02-01T13:07:41.659Z,14.60
2024-02-01T13:10:11.374Z,14.60
2024-02-01T13:12:54.731Z,14.60
2024-02-01T13:15:31.031Z,14.50
2024-02-01T13:17:59.218Z,14.50
2024-02-01T13:20:28.003Z,14.50
2024-02-01T13:22:55.603Z,14.50
2024-02-01T13:25:24.175Z,14.50
2024-02-01T13:27:55.956Z,14.50
2024-02-01T13:30:28.568Z,14.50
2024-02-01T13:32:56.077Z,14.40
2024-02-01T13:35:23.096Z,14.50
2024-02-01T13:37:53.035Z,14.50
2024-02-01T13:40:20.088Z,14.50
2024-02-01T13:42:47.377Z,14.50
2024-02-01T13:45:15.360Z,14.50
2024-02-01T13:47:52.588Z,14.50
2024-02-01T13:50:22.836Z,14.50
2024-02-01T13:52:51.944Z,14.50
2024-02-01T13:55:18.986Z,14.50
2024-02-01T13:57:46.416Z,14.50
2024-02-01T14:00:16.857Z,14.50
2024-02-01T14:02:51.902Z,14.50
2024-02-01T14:05:24.260Z,14.50
2024-02-01T14:07:53.874Z,14.50
2024-02-01T14:10:22.714Z,14.50
2024-02-01T14:12:50.095Z,14.50
2024-02-01T14:15:18.204Z,14.50
2024-02-01T14:17:45.423Z,14.50
2024-02-01T14:20:16.906Z,14.50
2024-02-01T14:22:45.442Z,14.50
2024-02-01T14:25:13.790Z,14.50
2024-02-01T14:27:41.669Z,14.50
2024-02-01T14:30:13.189Z,14.50
2024-02-01T14:32:41.956Z,14.50
2024-02-01T14:35:09.915Z,14.50
2024-02-01T14:37:37.257Z,14.50
2024-02-01T14:40:05.772Z,14.50
2024-02-01T14:42:32.779Z,14.40
2024-02-01T14:45:02.512Z,14.50
2024-02-01T14:47:29.881Z,14.40
2024-02-01T14:49:57.130Z,14.40
2024-02-01T14:52:24.074Z,14.40
2024-02-01T14:54:53.016Z,14.40
2024-02-01T14:57:21.448Z,14.40
2024-02-01T14:59:48.874Z,14.40
2024-02-01T15:02:15.857Z,14.40
2024-02-01T15:04:43.444Z,14.30
2024-02-01T15:07:12.269Z,14.30
2024-02-01T15:09:40.601Z,14.30
2024-02-01T15:12:08.657Z,14.30
2024-02-01T15:14:36.793Z,14.30
2024-02-01T15:17:14.218Z,14.30
2024-02-01T15:19:42.858Z,14.30
2024-02-01T15:22:11.409Z,14.30
2024-02-01T15:24:41.559Z,14.30
2024-02-01T15:27:08.831Z,14.20
2024-02-01T15:29:36.180Z,14.20
2024-02-01T15:32:03.602Z,14.20
2024-02-01T15:34:32.095Z,14.20
2024-02-01T15:36:59.448Z,14.20
2024-02-01T15:39:27.539Z,14.20
2024-02-01T15:42:02.435Z,14.10
2024-02-01T15:44:29.755Z,14.10
2024-02-01T15:46:57.506Z,14.10
2024-02-01T15:49:28.828Z,14.10
2024-02-01T15:51:57.793Z,14.10
2024-02-01T15:54:24.763Z,14.10
2024-02-01T15:56:52.028Z,14.10
2024-02-01T15:59:28.920Z,14.00
2024-02-01T16:01:56.072Z,14.00
2024-02-01T16:04:24.158Z,14.00
2024-02-01T16:06:52.637Z,14.00
2024-02-01T16:09:20.521Z,14.00
2024-02-01T16:11:48.080Z,13.90
2024-02-01T16:14:23.652Z,13.90
2024-02-01T16:16:51.965Z,13.90
2024-02-01T16:19:26.963Z,13.90
2024-02-01T16:21:55.449Z,13.80
2024-02-01T16:24:41.094Z,13.90
2024-02-01T16:27:56.031Z,13.80
2024-02-01T16:31:05.858Z,13.80
2024-02-01T16:33:46.174Z,13.70
2024-02-01T16:36:35.314Z,13.70
2024-02-01T16:39:06.061Z,13.60
2024-02-01T16:41:36.707Z,13.60
2024-02-01T16:44:06.931Z,13.50
2024-02-01T16:46:47.737Z,13.40
2024-02-01T16:49:26.250Z,13.40
2024-02-01T16:51:54.671Z,13.30
2024-02-01T16:54:21.848Z,13.30
2024-02-01T16:56:49.452Z,13.20
2024-02-01T16:59:18.660Z,13.20
2024-02-01T17:01:50.102Z,13.10
2024-02-01T17:04:20.615Z,13.00
2024-02-01T17:06:49.779Z,12.90
2024-02-01T17:09:27.129Z,12.80
2024-02-01T17:11:56.298Z,12.70
2024-02-01T17:14:28.071Z,12.60
2024-02-01T17:16:55.406Z,12.50
2024-02-01T17:19:23.096Z,12.40
2024-02-01T17:21:52.671Z,12.40
2024-02-01T17:24:25.983Z,12.40
2024-02-01T17:26:54.693Z,12.30
2024-02-01T17:29:27.140Z,12.20
2024-02-01T17:31:57.623Z,12.20
2024-02-01T17:34:38.759Z,12.10
2024-02-01T17:37:41.695Z,12.00
2024-02-01T17:40:15.613Z,11.90
2024-02-01T17:42:44.866Z,11.80
2024-02-01T17:45:17.129Z,11.80
2024-02-01T17:47:47.310Z,11.70
2024-02-01T17:50:35.429Z,11.70
2024-02-01T17:53:09.198Z,11.60
2024-02-01T17:55:53.431Z,11.60
2024-02-01T17:58:43.059Z,11.50
2024-02-01T18:01:24.060Z,11.50
2024-02-01T18:03:55.547Z,11.40
2024-02-01T18:06:43.424Z,11.30
2024-02-01T18:09:19.213Z,11.30
2024-02-01T18:11:52.225Z,11.20
2024-02-01T18:14:19.432Z,11.20
2024-02-01T18:16:46.670Z,11.10
2024-02-01T18:19:24.492Z,11.10
2024-02-01T18:21:52.124Z,11.00
2024-02-01T18:24:46.621Z,11.00
2024-02-01T18:27:24.793Z,10.90
2024-02-01T18:30:03.159Z,10.90
2024-02-01T18:32:33.035Z,10.80
2024-02-01T18:35:01.376Z,10.80
2024-02-01T18:37:33.762Z,10.70
2024-02-01T18:40:09.931Z,10.60
2024-02-01T18:43:00.627Z,10.60
2024-02-01T18:45:33.785Z,10.50
2024-02-01T18:48:01.199Z,10.50
2024-02-01T18:50:40.087Z,10.50
2024-02-01T18:53:07.556Z,10.40
2024-02-01T18:55:42.042Z,10.40
2024-02-01T18:58:41.030Z,10.40
2024-02-01T19:01:28.373Z,10.40
2024-02-01T19:04:10.049Z,10.40
2024-02-01T19:06:51.920Z,10.40
2024-02-01T19:09:22.132Z,10.40
2024-02-01T19:11:57.757Z,10.30
2024-02-01T19:14:29.655Z,10.30
2024-02-01T19:17:04.956Z,10.20
2024-02-01T19:19:34.963Z,10.20
2024-02-01T19:22:04.894Z,10.10
2024-02-01T19:24:33.540Z,10.10
2024-02-01T19:27:01.209Z,10.10
2024-02-01T19:29:31.381Z,10.00
2024-02-01T19:32:00.249Z,10.00
2024-02-01T19:34:31.425Z,9.90
2024-02-01T19:36:58.640Z,9.90
2024-02-01T19:39:30.976Z,9.90
2024-02-01T19:41:58.898Z,9.80
2024-02-01T19:44:27.040Z,9.80
2024-02-01T19:46:55.089Z,9.80
2024-02-01T19:49:23.829Z,9.80
2024-02-01T19:51:51.195Z,9.70
2024-02-01T19:54:18.745Z,9.70
2024-02-01T19:56:46.193Z,9.70
2024-02-01T19:59:13.339Z,9.70
2024-02-01T20:01:40.670Z,9.60
2024-02-01T20:04:09.520Z,9.60
2024-02-01T20:06:36.621Z,9.60
2024-02-01T20:09:04.942Z,9.50
2024-02-01T20:11:32.554Z,9.60
2024-02-01T20:14:01.312Z,9.50
2024-02-01T20:16:28.697Z,9.50
2024-02-01T20:18:56.546Z,9.50
2024-02-01T20:21:36.730Z,9.50
2024-02-01T20:24:06.309Z,9.50
2024-02-01T20:26:33.714Z,9.50
2024-02-01T20:29:00.995Z,9.50
2024-02-01T20:31:34.388Z,9.50
2024-02-01T20:34:14.404Z,9.50
2024-02-01T20:37:03.151Z,9.50
2024-02-01T20:39:41.480Z,9.50
2024-02-01T20:42:24.618Z,9.50
2024-02-01T20:44:54.235Z,9.50
2024-02-01T20:47:38.969Z,9.50
2024-02-01T20:50:36.146Z,9.40
2024-02-01T20:53:34.289Z,9.40
2024-02-01T20:56:01.634Z,9.30
2024-02-01T20:58:58.990Z,9.30
2024-02-01T21:01:39.414Z,9.30
2024-02-01T21:04:26.582Z,9.30
2024-02-01T21:06:54.250Z,9.30
2024-02-01T21:09:42.236Z,9.20
2024-02-01T21:12:10.862Z,9.20
2024-02-01T21:14:48.141Z,9.10
2024-02-01T21:17:22.320Z,9.10
2024-02-01T21:19:59.608Z,9.10
2024-02-01T21:22:34.002Z,9.10
2024-02-01T21:25:01.614Z,9.10
2024-02-01T21:27:30.773Z,9.00
2024-02-01T21:29:57.966Z,9.00
2024-02-01T21:32:25.832Z,8.90
2024-02-01T21:34:56.264Z,8.80
2024-02-01T21:37:24.423Z,8.80
2024-02-01T21:39:56.148Z,8.70
2024-02-01T21:42:29.756Z,8.70
2024-02-01T21:45:03.194Z,8.60
2024-02-01T21:47:30.691Z,8.60
2024-02-01T21:49:58.143Z,8.60
2024-02-01T21:52:26.252Z,8.50
2024-02-01T21:54:53.354Z,8.50
2024-02-01T21:57:21.870Z,8.50
2024-02-01T21:59:50.568Z,8.40
2024-02-01T22:02:17.874Z,8.40
2024-02-01T22:04:45.130Z,8.30
2024-02-01T22:07:12.849Z,8.30
2024-02-01T22:21:23.724Z,8.10
2024-02-01T22:23:50.637Z,8.10
2024-02-01T22:26:17.483Z,8.10
2024-02-01T22:28:44.401Z,8.10
2024-02-01T22:31:11.294Z,8.10
2024-02-01T22:33:38.347Z,8.10
2024-02-01T22:36:05.543Z,8.10
2024-02-01T22:38:32.426Z,8.00
2024-02-01T22:40:59.281Z,8.00
2024-02-01T22:43:26.221Z,8.00
2024-02-01T22:45:53.264Z,8.00
2024-02-01T22:48:20.369Z,7.90
2024-02-01T22:50:47.785Z,7.90
2024-02-01T22:53:14.693Z,7.90
2024-02-01T22:55:41.530Z,7.80
2024-02-01T22:58:08.806Z,7.80
2024-02-01T23:00:38.453Z,7.70
2024-02-01T23:03:06.312Z,7.70
2024-02-01T23:05:33.348Z,7.70
2024-02-01T23:08:00.259Z,7.60
2024-02-01T23:10:27.445Z,7.60
2024-02-01T23:22:02.912Z,7.50
2024-02-01T23:24:30.486Z,7.40
2024-02-01T23:26:57.594Z,7.40
2024-02-01T23:29:24.516Z,7.40
2024-02-01T23:31:51.542Z,7.40
2024-02-01T23:34:18.511Z,7.40
2024-02-01T23:36:45.750Z,7.40
2024-02-01T23:39:12.829Z,7.40
2024-02-01T23:41:39.858Z,7.40
2024-02-01T23:44:06.817Z,7.40
2024-02-01T23:46:34.101Z,7.40
2024-02-01T23:49:02.212Z,7.50
2024-02-01T23:51:30.006Z,7.40
2024-02-01T23:53:57.848Z,7.40
2024-02-01T23:56:24.819Z,7.40
2024-02-01T23:58:52.319Z,7.50
